Terminal Aerodrome Forecast
Issued by NWS Greer, SC

Current Version | Previous Version | Text Only | Print | Product List | Glossary On
Versions: 1 2 3 4 5 6 7 8 9 10 11 12 13 14 15 16 17 18 19 20 21 22 23 24 25 26 27
904
FTUS42 KGSP 221352 AAB
TAFGSP
TAF AMD
KGSP 221352Z 2214/2312 20009KT P6SM BKN009 OVC015
     FM221600 22008KT P6SM SCT015 BKN025
     FM221800 22008KT P6SM BKN040
     FM222300 20005KT P6SM SCT110
     FM230700 21003KT 6SM BR BKN008
     FM230900 20003KT 4SM BR BKN004=

USA.gov is the U.S. government's official web portal to all federal, state and local government web resources and services.